createdAt,value
2023-04-15T00:00:42.171Z,4.16
2023-04-15T00:01:42.120Z,4.18
2023-04-15T00:02:42.197Z,4.10
2023-04-15T00:03:42.201Z,4.14
2023-04-15T00:04:42.116Z,4.18
2023-04-15T00:05:42.071Z,4.07
2023-04-15T00:06:42.024Z,4.09
2023-04-15T00:07:42.106Z,4.18
2023-04-15T00:08:42.006Z,4.06
2023-04-15T00:09:41.965Z,4.20
2023-04-15T00:10:41.945Z,4.09
2023-04-15T00:11:41.937Z,4.18
2023-04-15T00:12:41.915Z,4.06
2023-04-15T00:13:41.901Z,4.10
2023-04-15T00:14:41.882Z,3.96
2023-04-15T00:15:41.869Z,4.13
2023-04-15T00:16:41.905Z,3.99
2023-04-15T00:17:41.860Z,4.10
2023-04-15T00:18:41.813Z,4.02
2023-04-15T00:19:41.794Z,3.99
2023-04-15T00:20:41.783Z,3.95
2023-04-15T00:21:41.761Z,3.91
2023-04-15T00:22:41.768Z,3.85
2023-04-15T00:23:41.724Z,3.82
2023-04-15T00:24:41.711Z,3.84
2023-04-15T00:25:41.690Z,3.77
2023-04-15T00:26:41.671Z,3.77
2023-04-15T00:27:41.652Z,3.68
2023-04-15T00:28:41.638Z,3.73
2023-04-15T00:29:41.625Z,3.78
2023-04-15T00:30:41.661Z,3.84
2023-04-15T00:31:41.593Z,3.74
2023-04-15T00:32:41.599Z,3.73
2023-04-15T00:33:41.549Z,3.67
2023-04-15T00:34:41.542Z,3.71
2023-04-15T00:35:41.530Z,3.73
2023-04-15T00:36:41.500Z,3.74
2023-04-15T00:37:41.480Z,3.67
2023-04-15T00:38:41.475Z,3.68
2023-04-15T00:39:41.449Z,3.67
2023-04-15T00:40:41.433Z,3.67
2023-04-15T00:41:41.415Z,3.63
2023-04-15T00:42:41.403Z,3.55
2023-04-15T00:43:41.374Z,3.52
2023-04-15T00:44:41.381Z,3.55
2023-04-15T00:45:41.457Z,3.53
2023-04-15T00:46:41.324Z,3.58
2023-04-15T00:47:41.350Z,3.66
2023-04-15T00:48:41.298Z,3.53
2023-04-15T00:49:41.280Z,3.52
2023-04-15T00:50:41.257Z,3.52
2023-04-15T00:51:41.239Z,3.53
2023-04-15T00:52:41.230Z,3.53
2023-04-15T00:53:41.209Z,3.43
2023-04-15T00:54:41.257Z,3.49
2023-04-15T00:55:41.167Z,3.43
2023-04-15T00:56:41.149Z,3.43
2023-04-15T00:57:41.279Z,3.36
2023-04-15T00:58:41.118Z,3.27
2023-04-15T00:59:41.124Z,3.31
2023-04-15T01:00:41.079Z,3.29
2023-04-15T01:01:41.112Z,3.34
2023-04-15T01:02:41.196Z,3.24
2023-04-15T01:03:41.116Z,3.24
2023-04-15T01:04:41.013Z,3.11
2023-04-15T01:05:41.003Z,3.19
2023-04-15T01:06:40.974Z,3.09
2023-04-15T01:07:40.963Z,3.06
2023-04-15T01:08:40.941Z,3.16
2023-04-15T01:09:40.922Z,3.13
2023-04-15T01:10:40.908Z,3.01
2023-04-15T01:11:40.886Z,3.13
2023-04-15T01:12:40.872Z,3.01
2023-04-15T01:13:40.857Z,3.09
2023-04-15T01:14:40.846Z,2.94
2023-04-15T01:15:40.864Z,3.00
2023-04-15T01:16:40.803Z,3.00
2023-04-15T01:17:40.818Z,3.03
2023-04-15T01:18:40.764Z,2.98
2023-04-15T01:21:24.932Z,3.03
2023-04-15T01:22:24.890Z,2.98
2023-04-15T01:23:24.869Z,3.01
2023-04-15T01:24:24.871Z,3.01
2023-04-15T01:25:24.836Z,2.97
2023-04-15T01:26:24.825Z,2.91
2023-04-15T01:27:24.801Z,3.01
2023-04-15T01:28:24.792Z,3.01
2023-04-15T01:29:24.771Z,2.93
2023-04-15T01:30:24.749Z,3.00
2023-04-15T01:31:24.786Z,3.05
2023-04-15T01:32:24.739Z,3.00
2023-04-15T01:33:24.729Z,3.11
2023-04-15T01:34:24.694Z,3.06
2023-04-15T01:35:24.940Z,3.12
2023-04-15T01:36:24.642Z,3.15
2023-04-15T01:37:24.629Z,3.11
2023-04-15T01:38:24.619Z,3.09
2023-04-15T01:39:24.591Z,3.13
2023-04-15T01:40:24.572Z,3.22
2023-04-15T01:41:24.554Z,3.29
2023-04-15T01:42:24.542Z,3.22
2023-04-15T01:43:24.520Z,3.26
2023-04-15T01:44:24.511Z,3.27
2023-04-15T01:45:24.550Z,3.33
2023-04-15T01:46:24.519Z,3.27
2023-04-15T01:47:24.501Z,3.31
2023-04-15T01:48:24.457Z,3.29
2023-04-15T01:49:24.420Z,3.24
2023-04-15T01:50:24.413Z,3.24
2023-04-15T01:51:24.385Z,3.24
2023-04-15T01:52:24.365Z,3.18
2023-04-15T01:53:24.351Z,3.22
2023-04-15T01:54:24.329Z,3.12
2023-04-15T01:55:24.317Z,3.12
2023-04-15T01:56:24.298Z,3.18
2023-04-15T01:57:24.285Z,3.12
2023-04-15T01:58:24.265Z,3.12
2023-04-15T01:59:24.241Z,3.13
2023-04-15T02:00:24.223Z,3.27
2023-04-15T02:01:24.235Z,3.11
2023-04-15T02:02:24.280Z,3.19
2023-04-15T02:03:24.275Z,3.21
2023-04-15T02:04:24.157Z,3.24
2023-04-15T02:05:24.138Z,3.19
2023-04-15T02:06:24.138Z,3.24
2023-04-15T02:07:24.100Z,3.27
2023-04-15T02:08:24.083Z,3.33
2023-04-15T02:09:24.066Z,3.29
2023-04-15T02:10:24.066Z,3.30
2023-04-15T02:11:24.031Z,3.36
2023-04-15T02:12:24.019Z,3.27
2023-04-15T02:13:24.000Z,3.43
2023-04-15T02:14:23.979Z,3.29
2023-04-15T02:15:23.961Z,3.41
2023-04-15T02:16:23.994Z,3.34
2023-04-15T02:17:23.945Z,3.36
2023-04-15T02:18:23.934Z,3.33
2023-04-15T02:19:23.910Z,3.41
2023-04-15T02:20:23.868Z,3.37
2023-04-15T02:21:23.859Z,3.33
2023-04-15T02:22:23.837Z,3.34
2023-04-15T02:23:23.822Z,3.41
2023-04-15T02:24:23.806Z,3.46
2023-04-15T02:25:23.785Z,3.52
2023-04-15T02:26:23.769Z,3.48
2023-04-15T02:27:23.750Z,3.37
2023-04-15T02:28:23.736Z,3.50
2023-04-15T02:29:23.712Z,3.48
2023-04-15T02:30:23.693Z,3.41
2023-04-15T02:31:23.682Z,3.41
2023-04-15T02:32:23.670Z,3.48
2023-04-15T02:33:23.684Z,3.43
2023-04-15T02:34:23.629Z,3.40
2023-04-15T02:35:23.606Z,3.40
2023-04-15T02:36:23.589Z,3.37
2023-04-15T02:37:23.572Z,3.45
2023-04-15T02:38:24.486Z,3.48
2023-04-15T02:39:23.538Z,3.56
2023-04-15T02:40:23.537Z,3.45
2023-04-15T02:41:23.500Z,3.43
2023-04-15T02:42:23.486Z,3.49
2023-04-15T02:43:23.469Z,3.37
2023-04-15T02:44:23.472Z,3.55
2023-04-15T02:45:23.436Z,3.45
2023-04-15T02:46:23.494Z,3.43
2023-04-15T02:47:23.409Z,3.33
2023-04-15T02:48:23.378Z,3.31
2023-04-15T02:49:23.361Z,3.37
2023-04-15T02:50:23.341Z,3.34
2023-04-15T02:51:23.323Z,3.24
2023-04-15T02:52:23.307Z,3.16
2023-04-15T02:53:23.301Z,3.16
2023-04-15T02:54:23.270Z,3.11
2023-04-15T02:55:23.251Z,3.12
2023-04-15T02:56:23.244Z,3.05
2023-04-15T02:57:23.213Z,2.95
2023-04-15T02:58:23.195Z,3.00
2023-04-15T02:59:23.181Z,2.97
2023-04-15T03:00:23.162Z,2.93
2023-04-15T03:01:23.174Z,2.93
2023-04-15T03:02:23.291Z,2.88
2023-04-15T03:03:23.216Z,2.90
2023-04-15T03:04:23.092Z,2.91
2023-04-15T03:05:23.073Z,2.88
2023-04-15T03:06:23.058Z,2.93
2023-04-15T03:07:23.043Z,2.83
2023-04-15T03:08:23.037Z,2.76
2023-04-15T03:09:23.030Z,2.75
2023-04-15T03:10:22.992Z,2.79
2023-04-15T03:11:22.968Z,2.75
2023-04-15T03:12:22.949Z,2.75
2023-04-15T03:13:22.930Z,2.75
2023-04-15T03:14:22.912Z,2.80
2023-04-15T03:15:22.903Z,2.73
2023-04-15T03:16:22.918Z,2.76
2023-04-15T03:17:22.884Z,2.73
2023-04-15T03:18:22.845Z,2.80
2023-04-15T03:19:22.823Z,2.79
2023-04-15T03:20:22.854Z,2.75
2023-04-15T03:21:22.788Z,2.77
2023-04-15T03:22:22.771Z,2.87
2023-04-15T03:23:22.765Z,2.95
2023-04-15T03:24:22.734Z,2.90
2023-04-15T03:25:22.717Z,2.95
2023-04-15T03:26:22.701Z,2.87
2023-04-15T03:27:22.686Z,2.93
2023-04-15T03:28:22.663Z,2.98
2023-04-15T03:29:22.649Z,2.97
2023-04-15T03:30:22.628Z,3.00
2023-04-15T03:31:22.653Z,2.98
2023-04-15T03:32:22.614Z,2.93
2023-04-15T03:33:22.573Z,3.00
2023-04-15T03:34:22.560Z,3.09
2023-04-15T03:35:22.540Z,3.09
2023-04-15T03:36:22.522Z,3.12
2023-04-15T03:37:22.502Z,3.08
2023-04-15T03:38:22.515Z,3.05
2023-04-15T03:39:22.478Z,3.06
2023-04-15T03:40:22.453Z,3.05
2023-04-15T03:41:22.432Z,3.05
2023-04-15T03:42:22.418Z,3.03
2023-04-15T03:43:22.404Z,3.06
2023-04-15T03:44:22.375Z,3.09
2023-04-15T03:45:22.365Z,3.09
2023-04-15T03:46:22.400Z,3.09
2023-04-15T03:47:22.357Z,3.18
2023-04-15T03:48:22.368Z,3.12
2023-04-15T03:49:22.291Z,3.22
2023-04-15T03:50:22.274Z,3.24
2023-04-15T03:51:22.265Z,3.24
2023-04-15T03:52:22.253Z,3.24
2023-04-15T03:53:22.231Z,3.29
2023-04-15T03:54:22.218Z,3.29
2023-04-15T03:55:22.189Z,3.30
2023-04-15T03:56:22.165Z,3.29
2023-04-15T03:57:22.157Z,3.40
2023-04-15T03:58:22.133Z,3.33
2023-04-15T03:59:22.110Z,3.31
2023-04-15T04:00:22.097Z,3.27
2023-04-15T04:01:22.074Z,3.33
2023-04-15T04:02:22.136Z,3.21
2023-04-15T04:03:22.275Z,3.24
2023-04-15T04:04:22.109Z,3.21
2023-04-15T04:05:22.013Z,3.27
2023-04-15T04:06:21.999Z,3.27
2023-04-15T04:07:21.984Z,3.33
2023-04-15T04:08:21.953Z,3.24
2023-04-15T04:09:21.946Z,3.26
2023-04-15T04:10:21.916Z,3.24
2023-04-15T04:11:21.900Z,3.33
2023-04-15T04:12:21.878Z,3.21
2023-04-15T04:13:21.866Z,3.30
2023-04-15T04:14:21.844Z,3.33
2023-04-15T04:15:21.829Z,3.29
2023-04-15T04:16:21.942Z,3.24
2023-04-15T04:17:21.849Z,3.24
2023-04-15T04:18:21.780Z,3.26
2023-04-15T04:19:21.767Z,3.29
2023-04-15T04:20:21.737Z,3.31
2023-04-15T04:21:21.729Z,3.21
2023-04-15T04:22:21.710Z,3.26
2023-04-15T04:23:21.689Z,3.27
2023-04-15T04:24:21.669Z,3.33
2023-04-15T04:25:21.653Z,3.31
2023-04-15T04:26:21.644Z,3.29
2023-04-15T04:27:21.615Z,3.30
2023-04-15T04:28:21.596Z,3.33
2023-04-15T04:29:21.578Z,3.27
2023-04-15T04:30:21.561Z,3.31
2023-04-15T04:31:21.577Z,3.22
2023-04-15T04:32:21.577Z,3.24
2023-04-15T04:33:21.508Z,3.27
2023-04-15T04:34:21.493Z,3.31
2023-04-15T04:35:21.469Z,3.30
2023-04-15T04:36:21.450Z,3.31
2023-04-15T04:37:21.434Z,3.29
2023-04-15T04:38:21.428Z,3.33
2023-04-15T04:39:21.400Z,3.29
2023-04-15T04:40:21.382Z,3.30
2023-04-15T04:41:21.368Z,3.29
2023-04-15T04:42:21.345Z,3.27
2023-04-15T04:43:21.334Z,3.34
2023-04-15T04:44:21.306Z,3.43
2023-04-15T04:45:21.291Z,3.41
2023-04-15T04:46:21.358Z,3.36
2023-04-15T04:47:21.261Z,3.46
2023-04-15T04:48:21.240Z,3.45
2023-04-15T04:49:21.227Z,3.45
2023-04-15T04:50:21.209Z,3.41
2023-04-15T04:51:21.184Z,3.52
2023-04-15T04:52:21.177Z,3.49
2023-04-15T04:53:21.161Z,3.50
2023-04-15T04:54:21.150Z,3.50
2023-04-15T04:55:21.120Z,3.55
2023-04-15T04:56:21.098Z,3.56
2023-04-15T04:57:21.075Z,3.58
2023-04-15T04:58:21.068Z,3.64
2023-04-15T04:59:21.044Z,3.66
2023-04-15T05:00:21.023Z,3.66
2023-04-15T05:01:21.032Z,3.66
2023-04-15T05:02:21.046Z,3.64
2023-04-15T05:03:21.203Z,3.71
2023-04-15T05:04:20.953Z,3.64
2023-04-15T05:05:20.937Z,3.71
2023-04-15T05:06:20.919Z,3.70
2023-04-15T05:07:20.899Z,3.81
2023-04-15T05:08:20.881Z,3.77
2023-04-15T05:09:20.868Z,3.77
2023-04-15T05:10:20.849Z,3.81
2023-04-15T05:11:20.853Z,3.78
2023-04-15T05:12:20.816Z,3.82
2023-04-15T05:13:20.797Z,3.84
2023-04-15T05:14:22.198Z,3.85
2023-04-15T05:15:20.765Z,4.06
2023-04-15T05:16:20.852Z,4.09
2023-04-15T05:17:20.783Z,4.14
2023-04-15T05:18:20.705Z,4.14
2023-04-15T05:19:20.718Z,4.16
2023-04-15T05:20:20.671Z,4.16
2023-04-15T05:21:20.660Z,4.22
2023-04-15T05:22:20.645Z,4.36
2023-04-15T05:23:20.633Z,4.32
2023-04-15T05:24:20.600Z,4.42
2023-04-15T05:25:20.597Z,4.50
2023-04-15T05:26:20.574Z,4.63
2023-04-15T05:27:20.554Z,4.61
2023-04-15T05:28:20.535Z,4.64
2023-04-15T05:29:20.519Z,4.68
2023-04-15T05:30:20.520Z,4.82
2023-04-15T05:31:20.547Z,4.83
2023-04-15T05:32:20.491Z,4.86
2023-04-15T05:33:20.456Z,5.00
2023-04-15T05:34:20.429Z,5.07
2023-04-15T05:35:20.415Z,5.07
2023-04-15T05:36:20.401Z,5.15
2023-04-15T05:37:20.383Z,5.20
2023-04-15T05:38:20.358Z,5.34
2023-04-15T05:39:20.341Z,5.43
2023-04-15T05:40:20.320Z,5.41
2023-04-15T05:41:20.315Z,5.52
2023-04-15T05:42:20.295Z,5.67
2023-04-15T05:43:20.267Z,5.79
2023-04-15T05:44:20.262Z,5.83
2023-04-15T05:45:20.279Z,5.98
2023-04-15T05:46:20.265Z,6.01
2023-04-15T05:47:20.228Z,6.15
2023-04-15T05:48:20.183Z,6.22
2023-04-15T05:49:20.167Z,6.36
2023-04-15T05:50:20.200Z,6.44
2023-04-15T05:51:20.131Z,6.59
2023-04-15T05:52:20.112Z,6.62
2023-04-15T05:53:20.094Z,6.74
2023-04-15T05:54:20.344Z,6.83
2023-04-15T05:55:20.064Z,6.93
2023-04-15T05:56:20.042Z,7.00
2023-04-15T05:57:20.030Z,7.07
2023-04-15T05:58:20.021Z,7.15
2023-04-15T05:59:20.025Z,7.25
2023-04-15T06:00:19.986Z,7.28
2023-04-15T06:01:19.979Z,7.41
2023-04-15T06:02:20.081Z,7.44
2023-04-15T06:03:19.981Z,7.61
2023-04-15T06:04:19.981Z,7.69
2023-04-15T06:05:19.897Z,7.72
2023-04-15T06:06:19.889Z,7.85
2023-04-15T06:07:19.862Z,7.91
2023-04-15T06:08:19.841Z,8.09
2023-04-15T06:09:19.825Z,8.01
2023-04-15T06:10:19.812Z,8.24
2023-04-15T06:11:19.790Z,8.34
2023-04-15T06:12:19.777Z,8.38
2023-04-15T06:13:19.765Z,8.49
2023-04-15T06:14:19.767Z,8.56
2023-04-15T06:15:19.729Z,8.69
2023-04-15T06:16:19.766Z,8.77
2023-04-15T06:17:19.730Z,8.75
2023-04-15T06:18:19.687Z,8.89
2023-04-15T06:19:19.661Z,8.95
2023-04-15T06:20:19.640Z,9.08
2023-04-15T06:21:19.626Z,9.30
2023-04-15T06:22:19.616Z,9.29
2023-04-15T06:23:19.595Z,9.52
2023-04-15T06:24:19.585Z,9.59
2023-04-15T06:25:19.573Z,9.69
2023-04-15T06:26:19.558Z,9.76
2023-04-15T06:27:19.528Z,9.88
2023-04-15T06:28:19.521Z,9.99
2023-04-15T06:29:19.509Z,10.02
2023-04-15T06:30:19.491Z,10.17
2023-04-15T06:31:19.501Z,10.10
2023-04-15T06:32:19.448Z,10.30
2023-04-15T06:33:19.439Z,10.27
2023-04-15T06:34:19.425Z,10.30
2023-04-15T06:35:19.403Z,10.36
2023-04-15T06:36:19.397Z,10.43
2023-04-15T06:37:19.383Z,10.36
2023-04-15T06:38:19.358Z,10.46
2023-04-15T06:39:19.338Z,10.28
2023-04-15T06:40:19.325Z,10.28
2023-04-15T06:41:19.306Z,10.45
2023-04-15T06:42:19.298Z,10.46
2023-04-15T06:43:19.275Z,10.28
2023-04-15T06:44:19.261Z,10.36
2023-04-15T06:45:19.242Z,10.39
2023-04-15T06:46:19.279Z,10.53
2023-04-15T06:47:19.248Z,10.71
2023-04-15T06:48:19.205Z,10.87
2023-04-15T06:49:19.182Z,11.04
2023-04-15T06:50:19.165Z,11.23
2023-04-15T06:51:19.151Z,11.41
2023-04-15T06:52:19.137Z,11.49
2023-04-15T06:53:19.119Z,11.67
2023-04-15T06:54:19.105Z,11.93
2023-04-15T06:55:19.094Z,11.99
2023-04-15T06:56:19.072Z,12.10
2023-04-15T06:57:19.062Z,12.21
2023-04-15T06:58:19.040Z,12.28
2023-04-15T06:59:19.048Z,12.45
2023-04-15T07:00:19.009Z,12.66
2023-04-15T07:01:19.033Z,12.65
2023-04-15T07:02:19.065Z,12.83
2023-04-15T07:03:19.001Z,12.95
2023-04-15T07:04:18.978Z,13.08
2023-04-15T07:05:18.941Z,13.27
2023-04-15T07:06:18.923Z,13.36
2023-04-15T07:07:18.910Z,13.55
2023-04-15T07:08:26.764Z,13.71
2023-04-15T07:09:18.877Z,13.83
2023-04-15T07:10:18.867Z,13.98
2023-04-15T07:11:18.852Z,14.01
2023-04-15T07:12:18.829Z,14.22
2023-04-15T07:13:18.816Z,14.33
2023-04-15T07:14:18.812Z,14.34
2023-04-15T07:15:18.791Z,14.51
2023-04-15T07:16:18.840Z,14.63
2023-04-15T07:17:18.822Z,14.73
2023-04-15T07:18:18.747Z,14.71
2023-04-15T07:19:18.732Z,14.73
2023-04-15T07:20:18.723Z,14.81
2023-04-15T07:21:18.713Z,14.78
2023-04-15T07:22:18.692Z,14.73
2023-04-15T07:23:18.680Z,14.73
2023-04-15T07:24:18.659Z,14.52
2023-04-15T07:25:18.650Z,14.48
2023-04-15T07:26:18.645Z,14.40
2023-04-15T07:27:18.638Z,14.33
2023-04-15T07:28:18.630Z,14.22
2023-04-15T07:29:18.603Z,14.04
2023-04-15T07:30:18.591Z,13.87
2023-04-15T07:31:18.641Z,13.71
2023-04-15T07:32:18.572Z,13.64
2023-04-15T07:33:18.552Z,13.64
2023-04-15T07:34:18.541Z,13.60
2023-04-15T07:35:18.517Z,13.60
2023-04-15T07:36:18.494Z,13.65
2023-04-15T07:37:18.483Z,13.70
2023-04-15T07:38:18.478Z,13.83
2023-04-15T07:39:18.462Z,14.11
2023-04-15T07:40:18.437Z,14.26
2023-04-15T07:41:18.437Z,14.51
2023-04-15T07:42:18.418Z,14.73
2023-04-15T07:43:18.413Z,14.96
2023-04-15T07:44:18.383Z,15.35
2023-04-15T07:45:18.415Z,15.60
2023-04-15T07:46:18.413Z,15.87
2023-04-15T07:47:18.407Z,16.22
2023-04-15T07:48:18.332Z,16.29
2023-04-15T07:49:18.317Z,16.50
2023-04-15T07:50:18.303Z,16.66
2023-04-15T07:51:18.290Z,16.68
2023-04-15T07:52:18.273Z,16.82
2023-04-15T07:53:18.266Z,16.95
2023-04-15T07:54:18.256Z,16.99
2023-04-15T07:55:18.237Z,16.98
2023-04-15T07:56:18.216Z,16.99
2023-04-15T07:57:18.207Z,16.97
2023-04-15T07:58:18.190Z,16.84
2023-04-15T07:59:18.183Z,16.82
2023-04-15T08:00:18.178Z,16.73
2023-04-15T08:01:18.153Z,16.66
2023-04-15T08:02:18.265Z,16.62
2023-04-15T08:03:18.171Z,16.57
2023-04-15T08:04:18.227Z,16.55
2023-04-15T08:05:18.142Z,16.50
2023-04-15T08:06:18.091Z,16.26
2023-04-15T08:07:18.078Z,16.28
2023-04-15T08:08:18.061Z,16.26
2023-04-15T08:09:18.048Z,16.34
2023-04-15T08:10:18.047Z,16.31
2023-04-15T08:11:18.022Z,16.32
2023-04-15T08:12:18.009Z,16.32
2023-04-15T08:13:18.006Z,16.29
2023-04-15T08:14:17.981Z,16.39
2023-04-15T08:15:17.967Z,16.37
2023-04-15T08:16:17.982Z,16.36
2023-04-15T08:17:17.958Z,16.28
2023-04-15T08:18:17.931Z,16.26
2023-04-15T08:19:17.912Z,16.22
2023-04-15T08:20:17.904Z,16.06
2023-04-15T08:21:17.903Z,16.00
2023-04-15T08:22:18.511Z,16.05
2023-04-15T08:23:17.854Z,16.10
2023-04-15T08:24:17.844Z,16.24
2023-04-15T08:25:17.831Z,16.21
2023-04-15T08:26:17.816Z,16.21
2023-04-15T08:27:17.808Z,16.05
2023-04-15T08:28:17.791Z,16.13
2023-04-15T08:29:17.806Z,16.32
2023-04-15T08:30:17.764Z,16.57
2023-04-15T08:31:17.771Z,16.87
2023-04-15T08:32:17.768Z,17.16
2023-04-15T08:33:17.722Z,17.54
2023-04-15T08:34:17.712Z,17.93
2023-04-15T08:35:17.704Z,18.23
2023-04-15T08:36:17.698Z,18.33
2023-04-15T08:37:17.668Z,18.37
2023-04-15T08:38:17.670Z,18.48
2023-04-15T08:39:17.650Z,18.58
2023-04-15T08:40:17.632Z,18.71
2023-04-15T08:41:17.623Z,18.96
2023-04-15T08:42:17.613Z,19.11
2023-04-15T08:43:17.591Z,19.22
2023-04-15T08:44:17.581Z,19.41
2023-04-15T08:45:17.570Z,19.45
2023-04-15T08:46:17.610Z,19.57
2023-04-15T08:47:17.546Z,19.49
2023-04-15T08:48:17.538Z,19.59
2023-04-15T08:49:17.533Z,19.48
2023-04-15T08:50:17.512Z,19.64
2023-04-15T08:51:17.500Z,20.19
2023-04-15T08:52:17.482Z,20.88
2023-04-15T08:53:17.488Z,21.89
2023-04-15T08:54:17.511Z,22.92
2023-04-15T08:55:17.449Z,23.69
2023-04-15T08:56:17.475Z,24.29
2023-04-15T08:57:17.424Z,24.59
2023-04-15T08:58:17.415Z,24.96
2023-04-15T08:59:17.399Z,25.24
2023-04-15T09:00:17.405Z,25.55
2023-04-15T09:01:17.458Z,25.61
2023-04-15T09:02:17.514Z,26.15
2023-04-15T09:03:17.460Z,26.51
2023-04-15T09:04:17.385Z,26.53
2023-04-15T09:05:17.332Z,26.48
2023-04-15T09:06:17.331Z,26.08
2023-04-15T09:07:17.324Z,25.33
2023-04-15T09:08:17.360Z,24.97
2023-04-15T09:09:17.289Z,24.58
2023-04-15T09:10:17.285Z,24.41
2023-04-15T09:11:19.475Z,24.37
2023-04-15T09:12:17.316Z,24.40
2023-04-15T09:13:17.257Z,24.19
2023-04-15T09:14:17.250Z,24.11
2023-04-15T09:15:17.230Z,23.94
2023-04-15T09:16:17.286Z,23.69
2023-04-15T09:17:17.207Z,23.69
2023-04-15T09:18:17.222Z,23.96
2023-04-15T09:19:17.185Z,23.69
2023-04-15T09:20:17.211Z,23.25
2023-04-15T09:21:17.172Z,22.83
2023-04-15T09:22:17.168Z,22.38
2023-04-15T09:23:17.150Z,22.08
2023-04-15T09:24:17.135Z,21.80
2023-04-15T09:25:17.125Z,21.45
2023-04-15T09:26:17.127Z,20.98
2023-04-15T09:27:17.099Z,20.88
2023-04-15T09:28:17.096Z,20.67
2023-04-15T09:29:17.079Z,20.64
2023-04-15T09:30:17.191Z,20.60
2023-04-15T09:31:17.191Z,20.44
2023-04-15T09:32:17.070Z,20.33
2023-04-15T09:33:17.046Z,20.32
2023-04-15T09:34:17.027Z,20.19
2023-04-15T09:35:17.022Z,20.15
2023-04-15T09:36:17.016Z,20.36
2023-04-15T09:37:31.353Z,20.52
2023-04-15T09:38:16.992Z,20.67
2023-04-15T09:39:17.012Z,20.83
2023-04-15T09:40:17.029Z,20.95
2023-04-15T09:41:16.954Z,21.22
2023-04-15T09:42:16.946Z,21.38
2023-04-15T09:43:16.931Z,21.62
2023-04-15T09:44:16.951Z,21.75
2023-04-15T09:45:16.916Z,21.85
2023-04-15T09:46:16.949Z,21.75
2023-04-15T09:47:16.883Z,21.63
2023-04-15T09:48:16.916Z,21.58
2023-04-15T09:49:16.968Z,21.41
2023-04-15T09:50:16.853Z,21.17
2023-04-15T09:51:16.843Z,21.00
2023-04-15T09:52:16.830Z,20.74
2023-04-15T09:53:16.819Z,20.55
2023-04-15T09:54:16.835Z,20.29
2023-04-15T09:55:16.839Z,20.14
2023-04-15T09:56:16.789Z,19.81
2023-04-15T09:57:16.775Z,19.47
2023-04-15T09:58:16.772Z,19.20
2023-04-15T09:59:16.756Z,19.05
2023-04-15T10:00:16.776Z,19.01
2023-04-15T10:01:16.753Z,18.96
2023-04-15T10:02:16.782Z,19.00
2023-04-15T10:03:16.941Z,19.07
2023-04-15T10:04:16.827Z,19.12
2023-04-15T10:05:16.689Z,19.07
2023-04-15T10:06:16.691Z,19.04
2023-04-15T10:07:16.668Z,19.00
2023-04-15T10:08:16.662Z,18.89
2023-04-15T10:09:16.663Z,18.96
2023-04-15T10:10:16.662Z,19.07
2023-04-15T10:11:16.624Z,19.19
2023-04-15T10:12:16.611Z,19.07
2023-04-15T10:13:16.652Z,19.05
2023-04-15T10:14:16.595Z,19.12
2023-04-15T10:15:16.587Z,19.07
2023-04-15T10:16:16.657Z,18.98
2023-04-15T10:17:16.585Z,18.97
2023-04-15T10:18:16.543Z,18.86
2023-04-15T10:19:16.530Z,18.73
2023-04-15T10:20:16.526Z,18.70
2023-04-15T10:21:16.642Z,18.67
2023-04-15T10:22:16.500Z,18.68
2023-04-15T10:23:16.489Z,18.71
2023-04-15T10:24:16.497Z,18.70
2023-04-15T10:25:16.489Z,18.85
2023-04-15T10:26:16.484Z,18.97
2023-04-15T10:27:16.561Z,19.20
2023-04-15T10:28:16.446Z,19.44
2023-04-15T10:29:16.421Z,19.56
2023-04-15T10:30:16.429Z,19.49
2023-04-15T10:31:16.417Z,19.48
2023-04-15T10:32:16.390Z,19.47
2023-04-15T10:33:16.367Z,19.56
2023-04-15T10:34:16.364Z,19.62
2023-04-15T10:35:16.348Z,19.63
2023-04-15T10:36:16.435Z,19.78
2023-04-15T10:37:16.380Z,19.85
2023-04-15T10:38:16.343Z,19.93
2023-04-15T10:39:16.292Z,20.08
2023-04-15T10:40:16.352Z,20.42
2023-04-15T10:41:17.759Z,20.60
2023-04-15T10:42:16.277Z,20.92
2023-04-15T10:43:16.279Z,21.75
2023-04-15T10:44:16.264Z,22.51
2023-04-15T10:45:16.223Z,23.14
2023-04-15T10:46:16.424Z,23.76
2023-04-15T10:47:16.211Z,23.88
2023-04-15T10:48:16.190Z,24.09
2023-04-15T10:49:16.178Z,23.92
2023-04-15T10:50:16.168Z,23.73
2023-04-15T10:51:16.160Z,23.42
2023-04-15T10:52:16.151Z,23.07
2023-04-15T10:53:16.154Z,22.89
2023-04-15T10:54:16.182Z,22.68
2023-04-15T10:55:16.114Z,22.63
2023-04-15T10:56:16.111Z,22.51
2023-04-15T10:57:16.104Z,22.71
2023-04-15T10:58:16.082Z,23.02
2023-04-15T10:59:16.081Z,23.29
2023-04-15T11:00:16.058Z,23.54
2023-04-15T11:01:16.046Z,23.59
2023-04-15T11:02:16.465Z,23.69
2023-04-15T11:03:16.161Z,23.62
2023-04-15T11:04:16.184Z,23.71
2023-04-15T11:05:16.052Z,23.79
2023-04-15T11:06:16.032Z,23.74
2023-04-15T11:07:16.049Z,23.70
2023-04-15T11:08:15.977Z,23.82
2023-04-15T11:09:15.976Z,23.56
2023-04-15T11:10:15.974Z,23.18
2023-04-15T11:11:15.977Z,22.95
2023-04-15T11:12:15.931Z,22.70
2023-04-15T11:13:15.922Z,22.52
2023-04-15T11:14:15.925Z,22.49
2023-04-15T11:15:15.902Z,22.51
2023-04-15T11:16:15.909Z,22.55
2023-04-15T11:17:15.891Z,22.63
2023-04-15T11:18:15.878Z,22.93
2023-04-15T11:19:15.855Z,22.95
2023-04-15T11:20:15.848Z,22.89
2023-04-15T11:21:15.876Z,22.98
2023-04-15T11:22:15.825Z,22.99
2023-04-15T11:23:16.040Z,23.08
2023-04-15T11:24:15.806Z,22.89
2023-04-15T11:25:15.800Z,22.83
2023-04-15T11:26:15.798Z,22.71
2023-04-15T11:27:15.780Z,22.46
2023-04-15T11:28:15.784Z,22.49
2023-04-15T11:29:15.784Z,22.38
2023-04-15T11:30:15.749Z,22.31
2023-04-15T11:31:15.831Z,22.28
2023-04-15T11:32:15.825Z,22.18
2023-04-15T11:33:15.718Z,22.06
2023-04-15T11:34:15.716Z,22.06
2023-04-15T11:35:15.705Z,21.96
2023-04-15T11:36:15.697Z,22.04
2023-04-15T11:37:15.685Z,22.07
2023-04-15T11:38:15.690Z,22.16
2023-04-15T11:39:15.656Z,21.99
2023-04-15T11:40:15.668Z,21.74
2023-04-15T11:41:15.630Z,21.68
2023-04-15T11:42:15.631Z,21.65
2023-04-15T11:43:15.635Z,21.33
2023-04-15T11:44:15.623Z,21.15
2023-04-15T11:45:15.597Z,21.07
2023-04-15T11:46:15.631Z,21.01
2023-04-15T11:47:15.575Z,20.93
2023-04-15T11:48:15.571Z,21.01
2023-04-15T11:49:15.556Z,20.88
2023-04-15T11:50:15.544Z,20.88
2023-04-15T11:51:15.554Z,20.82
2023-04-15T11:52:15.531Z,20.74
2023-04-15T11:53:15.517Z,20.56
2023-04-15T11:54:15.572Z,20.49
2023-04-15T11:55:15.509Z,20.36
2023-04-15T11:56:15.473Z,20.33
2023-04-15T11:57:15.477Z,20.19
2023-04-15T11:58:16.329Z,20.15
2023-04-15T11:59:15.443Z,20.04
2023-04-15T12:00:15.438Z,20.08
2023-04-15T12:01:15.422Z,20.10
2023-04-15T12:02:15.548Z,19.87
2023-04-15T12:03:15.677Z,19.89
2023-04-15T12:04:15.548Z,19.71
2023-04-15T12:05:15.472Z,19.41
2023-04-15T12:06:15.366Z,18.97
2023-04-15T12:07:15.357Z,18.63
2023-04-15T12:08:15.419Z,18.13
2023-04-15T12:09:15.340Z,17.65
2023-04-15T12:10:15.354Z,17.22
2023-04-15T12:11:15.532Z,16.89
2023-04-15T12:12:15.451Z,16.61
2023-04-15T12:13:15.286Z,16.31
2023-04-15T12:14:15.277Z,15.96
2023-04-15T12:15:15.259Z,15.72
2023-04-15T12:16:15.315Z,15.48
2023-04-15T12:17:15.241Z,15.29
2023-04-15T12:18:15.288Z,15.02
2023-04-15T12:19:15.216Z,14.77
2023-04-15T12:20:15.238Z,14.52
2023-04-15T12:21:15.193Z,14.15
2023-04-15T12:22:15.200Z,14.04
2023-04-15T12:23:15.170Z,14.07
2023-04-15T12:24:15.149Z,14.05
2023-04-15T12:25:15.142Z,14.08
2023-04-15T12:26:15.139Z,14.04
2023-04-15T12:27:15.127Z,13.95
2023-04-15T12:28:15.105Z,13.93
2023-04-15T12:29:15.094Z,13.83
2023-04-15T12:30:15.084Z,13.62
2023-04-15T12:31:15.101Z,13.60
2023-04-15T12:32:15.132Z,13.52
2023-04-15T12:33:15.044Z,13.36
2023-04-15T12:34:15.134Z,13.19
2023-04-15T12:35:15.023Z,13.12
2023-04-15T12:36:15.003Z,13.19
2023-04-15T12:37:14.993Z,13.19
2023-04-15T12:38:15.084Z,13.12
2023-04-15T12:39:14.959Z,13.06
2023-04-15T12:40:14.965Z,13.17
2023-04-15T12:41:14.982Z,12.93
2023-04-15T12:42:14.926Z,13.02
2023-04-15T12:43:14.916Z,13.06
2023-04-15T12:44:14.904Z,13.05
2023-04-15T12:45:14.886Z,13.03
2023-04-15T12:46:14.888Z,13.13
2023-04-15T12:47:14.867Z,13.06
2023-04-15T12:48:14.851Z,12.91
2023-04-15T12:49:14.852Z,13.12
2023-04-15T12:50:14.823Z,12.94
2023-04-15T12:51:14.805Z,12.91
2023-04-15T12:52:14.788Z,13.05
2023-04-15T12:53:14.778Z,13.02
2023-04-15T12:54:14.762Z,12.88
2023-04-15T12:55:14.752Z,13.02
2023-04-15T12:56:14.738Z,12.99
2023-04-15T12:57:14.728Z,12.88
2023-04-15T12:58:14.711Z,12.62
2023-04-15T12:59:14.698Z,12.54
2023-04-15T13:00:14.680Z,12.65
2023-04-15T13:01:14.669Z,12.57
2023-04-15T13:02:14.732Z,12.54
2023-04-15T13:03:14.684Z,12.48
2023-04-15T13:04:14.687Z,12.63
2023-04-15T13:05:14.615Z,12.48
2023-04-15T13:06:14.598Z,12.48
2023-04-15T13:07:14.592Z,12.44